createdAt,value
2018-04-13T00:01:59.611Z,8.17
2018-04-13T00:04:27.883Z,8.60
2018-04-13T00:06:56.246Z,8.20
2018-04-13T00:09:23.763Z,8.03
2018-04-13T00:11:51.305Z,10.40
2018-04-13T00:14:18.819Z,9.00
2018-04-13T00:16:47.139Z,8.73
2018-04-13T00:19:14.666Z,8.20
2018-04-13T00:21:42.976Z,9.40
2018-04-13T00:24:10.503Z,8.87
2018-04-13T00:26:38.042Z,8.00
2018-04-13T00:29:06.316Z,8.47
2018-04-13T00:31:34.630Z,8.40
2018-04-13T00:34:02.404Z,8.70
2018-04-13T00:36:29.951Z,8.47
2018-04-13T00:38:57.467Z,9.10
2018-04-13T00:41:25.783Z,7.77
2018-04-13T00:43:53.635Z,9.27
2018-04-13T00:46:21.176Z,8.43
2018-04-13T00:48:48.691Z,8.60
2018-04-13T00:51:16.232Z,9.53
2018-04-13T00:53:43.752Z,8.47
2018-04-13T00:56:11.544Z,8.27
2018-04-13T00:58:39.915Z,9.20
2018-04-13T01:01:07.452Z,7.70
2018-04-13T01:03:34.964Z,7.73
2018-04-13T01:06:02.503Z,8.17
2018-04-13T01:08:30.044Z,8.07
2018-04-13T01:10:57.578Z,8.30
2018-04-13T01:13:25.096Z,7.90
2018-04-13T01:15:53.417Z,7.87
2018-04-13T01:18:20.931Z,8.43
2018-04-13T01:20:49.246Z,7.50
2018-04-13T01:23:16.808Z,8.00
2018-04-13T01:25:44.356Z,7.17
2018-04-13T01:28:11.891Z,8.30
2018-04-13T01:30:39.412Z,7.30
2018-04-13T01:33:06.941Z,7.53
2018-04-13T01:35:34.455Z,7.93
2018-04-13T01:38:03.204Z,8.53
2018-04-13T01:40:31.049Z,8.50
2018-04-13T01:42:58.590Z,7.93
2018-04-13T01:45:26.109Z,7.17
2018-04-13T01:47:54.416Z,7.30
2018-04-13T01:50:22.195Z,7.13
2018-04-13T01:52:49.759Z,7.03
2018-04-13T01:55:17.274Z,7.90
2018-04-13T01:57:45.071Z,7.23
2018-04-13T02:00:12.624Z,7.23
2018-04-13T02:02:40.175Z,8.57
2018-04-13T02:05:07.696Z,7.63
2018-04-13T02:07:36.003Z,7.47
2018-04-13T02:10:03.524Z,8.10
2018-04-13T02:12:31.828Z,7.30
2018-04-13T02:14:59.342Z,8.20
2018-04-13T02:17:27.112Z,7.90
2018-04-13T02:19:55.383Z,7.37
2018-04-13T02:22:23.714Z,7.57
2018-04-13T02:24:51.476Z,8.17
2018-04-13T02:27:19.774Z,7.90
2018-04-13T02:29:47.607Z,7.90
2018-04-13T02:32:15.160Z,8.60
2018-04-13T02:34:42.743Z,8.80
2018-04-13T02:37:10.301Z,8.20
2018-04-13T02:39:37.823Z,9.87
2018-04-13T02:42:05.354Z,8.40
2018-04-13T02:44:32.886Z,9.30
2018-04-13T02:47:00.715Z,9.20
2018-04-13T02:49:29.198Z,10.30
2018-04-13T02:51:56.737Z,9.80
2018-04-13T02:54:24.255Z,8.90
2018-04-13T02:56:52.574Z,9.67
2018-04-13T02:59:20.544Z,9.30
2018-04-13T03:01:48.107Z,10.17
2018-04-13T03:04:15.640Z,8.90
2018-04-13T03:06:43.523Z,8.60
2018-04-13T03:09:11.044Z,9.33
2018-04-13T03:11:38.582Z,9.60
2018-04-13T03:14:06.864Z,8.40
2018-04-13T03:16:35.179Z,9.47
2018-04-13T03:19:02.942Z,9.10
2018-04-13T03:21:30.511Z,9.73
2018-04-13T03:23:58.042Z,9.53
2018-04-13T03:26:25.819Z,9.50
2018-04-13T03:28:53.365Z,9.30
2018-04-13T03:31:20.884Z,9.20
2018-04-13T03:33:49.514Z,9.00
2018-04-13T03:36:17.022Z,9.47
2018-04-13T03:38:45.650Z,8.90
2018-04-13T03:41:13.158Z,9.07
2018-04-13T03:43:41.462Z,9.10
2018-04-13T03:46:08.978Z,9.30
2018-04-13T03:48:36.512Z,8.67
2018-04-13T03:51:04.031Z,8.57
2018-04-13T03:53:31.577Z,8.33
2018-04-13T03:55:59.095Z,8.50
2018-04-13T03:58:26.632Z,8.30
2018-04-13T04:00:54.153Z,7.10
2018-04-13T04:03:21.687Z,8.20
2018-04-13T04:05:49.199Z,7.40
2018-04-13T04:08:16.956Z,7.33
2018-04-13T04:10:44.477Z,7.30
2018-04-13T04:13:12.367Z,7.47
2018-04-13T04:15:39.874Z,6.77
2018-04-13T04:18:08.171Z,6.87
2018-04-13T04:20:47.623Z,7.13
2018-04-13T04:23:27.048Z,7.00
2018-04-13T04:26:06.609Z,7.10
2018-04-13T04:28:34.143Z,8.30
2018-04-13T04:31:02.473Z,6.87
2018-04-13T04:33:30.024Z,7.83
2018-04-13T04:35:57.531Z,7.30
2018-04-13T04:38:25.073Z,6.80
2018-04-13T04:40:52.651Z,7.23
2018-04-13T04:43:20.431Z,6.90
2018-04-13T04:45:47.960Z,7.50
2018-04-13T04:48:15.500Z,6.93
2018-04-13T04:50:44.016Z,6.67
2018-04-13T04:53:11.883Z,7.20
2018-04-13T04:55:39.643Z,6.83
2018-04-13T04:58:07.213Z,6.73
2018-04-13T05:00:34.798Z,6.70
2018-04-13T05:03:02.331Z,6.87
2018-04-13T05:05:29.835Z,6.60
2018-04-13T05:07:57.725Z,6.03
2018-04-13T05:10:25.506Z,6.37
2018-04-13T05:12:53.049Z,5.90
2018-04-13T05:15:20.816Z,6.00
2018-04-13T05:17:48.681Z,6.10
2018-04-13T05:20:16.210Z,6.20
2018-04-13T05:22:43.752Z,6.30
2018-04-13T05:25:12.271Z,5.87
2018-04-13T05:27:39.832Z,6.13
2018-04-13T05:30:07.404Z,5.30
2018-04-13T05:32:35.707Z,4.87
2018-04-13T05:35:04.060Z,5.70
2018-04-13T05:37:31.799Z,6.00
2018-04-13T05:39:59.306Z,5.57
2018-04-13T05:42:27.642Z,4.87
2018-04-13T05:44:55.219Z,5.47
2018-04-13T05:47:22.759Z,5.97
2018-04-13T05:49:51.211Z,6.03
2018-04-13T05:55:11.215Z,6.40
2018-04-13T05:57:38.747Z,5.90
2018-04-13T06:00:06.270Z,4.97
2018-04-13T06:02:33.798Z,5.00
2018-04-13T06:05:01.302Z,5.97
2018-04-13T06:07:29.600Z,5.40
2018-04-13T06:09:57.107Z,5.93
2018-04-13T06:12:24.651Z,6.90
2018-04-13T06:14:52.166Z,5.40
2018-04-13T06:17:19.695Z,5.50
2018-04-13T06:19:47.987Z,5.90
2018-04-13T06:22:15.498Z,6.10
2018-04-13T06:24:43.023Z,6.20
2018-04-13T06:27:10.538Z,5.07
2018-04-13T06:29:38.880Z,6.50
2018-04-13T06:32:06.367Z,6.13
2018-04-13T06:34:34.675Z,6.47
2018-04-13T06:37:02.449Z,6.10
2018-04-13T06:39:30.311Z,6.80
2018-04-13T06:41:57.818Z,5.77
2018-04-13T06:44:26.134Z,5.53
2018-04-13T06:46:53.639Z,5.80
2018-04-13T06:49:21.948Z,6.70
2018-04-13T06:51:49.459Z,8.83
2018-04-13T06:54:16.986Z,7.57
2018-04-13T06:56:44.511Z,5.77
2018-04-13T06:59:12.047Z,6.20
2018-04-13T07:01:40.336Z,8.20
2018-04-13T07:04:07.886Z,7.23
2018-04-13T07:06:36.170Z,9.60
2018-04-13T07:09:03.707Z,49.47
2018-04-13T07:11:32.003Z,11.63
2018-04-13T07:13:59.550Z,8.37
2018-04-13T07:16:27.828Z,7.80
2018-04-13T07:18:55.381Z,8.17
2018-04-13T07:21:22.914Z,12.23
2018-04-13T07:23:50.474Z,21.43
2018-04-13T07:26:17.986Z,9.33
2018-04-13T07:28:45.519Z,9.23
2018-04-13T07:31:13.049Z,9.07
2018-04-13T07:33:41.478Z,9.40
2018-04-13T07:36:08.867Z,9.33
2018-04-13T07:38:36.972Z,10.20
2018-04-13T07:41:05.080Z,10.03
2018-04-13T07:43:33.974Z,10.83
2018-04-13T07:46:01.885Z,11.17
2018-04-13T07:48:30.183Z,10.80
2018-04-13T07:50:57.700Z,12.23
2018-04-13T07:53:26.027Z,11.70
2018-04-13T07:55:53.538Z,10.97
2018-04-13T07:58:22.385Z,12.00
2018-04-13T08:00:50.369Z,12.50
2018-04-13T08:03:17.250Z,11.13
2018-04-13T08:05:44.764Z,13.37
2018-04-13T08:08:12.297Z,11.43
2018-04-13T08:10:39.810Z,13.23
2018-04-13T08:13:08.107Z,12.57
2018-04-13T08:15:35.882Z,12.80
2018-04-13T08:18:03.509Z,11.73
2018-04-13T08:20:30.963Z,13.30
2018-04-13T08:22:58.497Z,14.97
2018-04-13T08:25:27.035Z,14.83
2018-04-13T08:27:54.573Z,16.20
2018-04-13T08:30:22.087Z,15.70
2018-04-13T08:32:49.910Z,16.30
2018-04-13T08:35:17.442Z,18.50
2018-04-13T08:37:44.954Z,18.80
2018-04-13T08:40:12.491Z,19.90
2018-04-13T08:42:40.056Z,20.83
2018-04-13T08:45:07.602Z,21.03
2018-04-13T08:47:35.131Z,21.53
2018-04-13T08:50:02.914Z,23.23
2018-04-13T08:52:30.427Z,22.60
2018-04-13T08:54:58.229Z,22.30
2018-04-13T08:57:25.738Z,21.60
2018-04-13T08:59:53.300Z,25.10
2018-04-13T09:02:21.579Z,24.63
2018-04-13T09:04:49.385Z,24.70
2018-04-13T09:07:16.898Z,26.70
2018-04-13T09:09:44.456Z,24.13
2018-04-13T09:12:11.977Z,25.73
2018-04-13T09:14:41.002Z,27.73
2018-04-13T09:17:08.519Z,26.33
2018-04-13T09:19:36.055Z,28.20
2018-04-13T09:22:03.571Z,26.67
2018-04-13T09:24:31.110Z,28.00
2018-04-13T09:26:59.418Z,23.80
2018-04-13T09:29:26.954Z,20.80
2018-04-13T09:31:55.234Z,20.47
2018-04-13T09:34:22.771Z,23.60
2018-04-13T09:36:51.057Z,28.70
2018-04-13T09:39:19.355Z,29.23
2018-04-13T09:41:46.866Z,28.50
2018-04-13T09:44:15.187Z,26.63
2018-04-13T09:46:42.708Z,27.40
2018-04-13T09:49:11.239Z,27.30
2018-04-13T09:51:38.784Z,26.40
2018-04-13T09:54:06.302Z,25.60
2018-04-13T09:56:34.650Z,25.93
2018-04-13T09:59:02.176Z,21.53
2018-04-13T10:01:35.326Z,22.17
2018-04-13T10:04:05.449Z,22.70
2018-04-13T10:06:32.987Z,24.27
2018-04-13T10:09:01.271Z,18.83
2018-04-13T10:11:29.898Z,18.40
2018-04-13T10:13:57.660Z,16.57
2018-04-13T10:16:25.203Z,16.93
2018-04-13T10:18:52.719Z,17.67
2018-04-13T10:21:21.355Z,17.30
2018-04-13T10:23:48.863Z,16.40
2018-04-13T10:26:21.107Z,17.63
2018-04-13T10:28:48.619Z,15.63
2018-04-13T10:31:17.266Z,16.80
2018-04-13T10:33:44.775Z,14.10
2018-04-13T10:36:12.312Z,14.70
2018-04-13T10:38:39.853Z,13.20
2018-04-13T10:41:07.437Z,14.43
2018-04-13T10:43:34.918Z,15.27
2018-04-13T10:46:02.450Z,12.47
2018-04-13T10:48:29.971Z,12.27
2018-04-13T10:50:57.775Z,11.70
2018-04-13T10:53:25.355Z,10.10
2018-04-13T10:55:52.891Z,8.00
2018-04-13T10:58:20.403Z,6.47
2018-04-13T11:00:47.913Z,6.60
2018-04-13T11:03:15.461Z,5.90
2018-04-13T11:05:43.001Z,7.00
2018-04-13T11:08:10.535Z,8.40
2018-04-13T11:10:38.047Z,10.23
2018-04-13T11:13:05.582Z,11.47
2018-04-13T11:15:33.087Z,12.50
2018-04-13T11:18:01.723Z,13.00
2018-04-13T11:20:29.242Z,13.60
2018-04-13T11:22:57.032Z,14.27
2018-04-13T11:25:24.548Z,14.83
2018-04-13T11:27:53.170Z,16.30
2018-04-13T11:30:20.682Z,18.07
2018-04-13T11:32:48.221Z,19.77
2018-04-13T11:35:15.740Z,20.33
2018-04-13T11:37:43.319Z,21.57
2018-04-13T11:40:10.826Z,23.50
2018-04-13T11:42:38.367Z,22.60
2018-04-13T11:45:06.642Z,25.30
2018-04-13T11:47:34.939Z,27.70
2018-04-13T11:50:02.717Z,23.67
2018-04-13T11:52:30.244Z,24.60
2018-04-13T11:54:57.781Z,26.73
2018-04-13T11:57:26.090Z,26.97
2018-04-13T11:59:53.967Z,24.33
2018-04-13T12:02:21.479Z,26.50
2018-04-13T12:04:49.784Z,27.87
2018-04-13T12:07:17.299Z,28.87
2018-04-13T12:09:45.611Z,26.67
2018-04-13T12:12:13.118Z,30.47
2018-04-13T12:14:40.948Z,27.83
2018-04-13T12:17:08.465Z,27.83
2018-04-13T12:19:37.089Z,28.90
2018-04-13T12:22:04.607Z,28.87
2018-04-13T12:24:32.146Z,24.77
2018-04-13T12:27:00.679Z,25.30
2018-04-13T12:29:28.210Z,25.60
2018-04-13T12:31:55.767Z,25.30
2018-04-13T12:34:23.315Z,23.67
2018-04-13T12:36:50.858Z,23.60
2018-04-13T12:39:19.168Z,23.03
2018-04-13T12:41:46.683Z,24.60
2018-04-13T12:44:15.314Z,25.53
2018-04-13T12:46:42.827Z,24.30
2018-04-13T12:49:11.362Z,24.37
2018-04-13T12:51:38.888Z,27.70
2018-04-13T12:54:06.471Z,26.07
2018-04-13T12:56:34.234Z,26.97
2018-04-13T12:59:01.824Z,27.33
2018-04-13T13:01:29.314Z,25.60
2018-04-13T13:03:56.826Z,26.87
2018-04-13T13:06:24.359Z,20.40
2018-04-13T13:08:51.939Z,19.73
2018-04-13T13:11:19.435Z,12.30
2018-04-13T13:13:46.947Z,9.80
2018-04-13T13:16:14.479Z,10.40
2018-04-13T13:18:41.995Z,14.77
2018-04-13T13:21:10.334Z,14.53
2018-04-13T13:23:37.842Z,18.17
2018-04-13T13:26:05.378Z,19.00
2018-04-13T13:28:33.650Z,18.70
2018-04-13T13:31:01.969Z,17.40
2018-04-13T13:33:29.490Z,15.80
2018-04-13T13:35:57.026Z,18.07
2018-04-13T13:38:25.299Z,18.20
2018-04-13T13:40:53.615Z,17.93
2018-04-13T13:43:21.130Z,18.23
2018-04-13T13:45:49.456Z,23.50
2018-04-13T13:48:16.974Z,23.30
2018-04-13T13:50:45.271Z,25.57
2018-04-13T13:53:12.783Z,25.43
2018-04-13T13:55:40.321Z,26.53
2018-04-13T13:58:07.852Z,26.97
2018-04-13T14:00:35.389Z,26.90
2018-04-13T14:03:02.906Z,25.00
2018-04-13T14:05:30.450Z,23.17
2018-04-13T14:07:57.964Z,24.20
2018-04-13T14:10:25.513Z,20.20
2018-04-13T14:12:53.029Z,18.20
2018-04-13T14:15:21.352Z,17.27
2018-04-13T14:17:48.863Z,15.10
2018-04-13T14:20:16.441Z,14.33
2018-04-13T14:22:44.727Z,12.53
2018-04-13T14:25:12.270Z,12.33
2018-04-13T14:27:40.542Z,12.73
2018-04-13T14:30:08.090Z,11.93
2018-04-13T14:32:36.372Z,10.60
2018-04-13T14:35:04.663Z,9.00
2018-04-13T14:37:32.504Z,8.90
2018-04-13T14:40:00.779Z,9.30
2018-04-13T14:42:29.083Z,8.77
2018-04-13T14:44:56.594Z,8.70
2018-04-13T14:47:24.151Z,8.60
2018-04-13T14:49:51.982Z,8.67
2018-04-13T14:52:19.517Z,8.33
2018-04-13T14:54:47.031Z,8.13
2018-04-13T14:57:14.565Z,8.10
2018-04-13T14:59:42.087Z,8.20
2018-04-13T15:02:09.615Z,7.93
2018-04-13T15:04:37.895Z,7.80
2018-04-13T15:07:05.443Z,8.80
2018-04-13T15:09:33.724Z,7.80
2018-04-13T15:12:02.024Z,7.60
2018-04-13T15:14:29.798Z,7.90
2018-04-13T15:16:57.334Z,7.37
2018-04-13T15:19:24.844Z,6.53
2018-04-13T15:21:52.675Z,7.00
2018-04-13T15:24:20.211Z,6.73
2018-04-13T15:26:47.724Z,6.83
2018-04-13T15:29:15.255Z,6.97
2018-04-13T15:31:42.763Z,7.33
2018-04-13T15:34:10.354Z,7.73
2018-04-13T15:36:37.827Z,7.83
2018-04-13T15:39:06.146Z,8.20
2018-04-13T15:41:34.422Z,8.70
2018-04-13T15:44:03.043Z,9.63
2018-04-13T15:46:30.570Z,9.00
2018-04-13T15:48:58.458Z,8.87
2018-04-13T15:51:26.227Z,10.73
2018-04-13T15:53:53.762Z,19.20
2018-04-13T15:56:21.326Z,11.30
2018-04-13T15:58:48.859Z,10.80
2018-04-13T16:01:16.383Z,11.20
2018-04-13T16:03:43.922Z,12.53
2018-04-13T16:06:11.461Z,12.40
2018-04-13T16:08:38.995Z,12.53
2018-04-13T16:11:06.553Z,12.90
2018-04-13T16:13:34.092Z,12.07
2018-04-13T16:16:02.611Z,13.20
2018-04-13T16:18:30.127Z,13.17
2018-04-13T16:20:58.429Z,11.90
2018-04-13T16:23:25.943Z,13.87
2018-04-13T16:25:54.257Z,13.00
2018-04-13T16:28:21.771Z,11.83
2018-04-13T16:30:50.075Z,11.93
2018-04-13T16:33:17.866Z,11.87
2018-04-13T16:35:45.730Z,12.73
2018-04-13T16:38:13.298Z,12.00
2018-04-13T16:40:40.947Z,11.93
2018-04-13T16:43:08.459Z,12.37
2018-04-13T16:45:36.803Z,12.23
2018-04-13T16:48:04.835Z,12.30
2018-04-13T16:50:32.367Z,12.53
2018-04-13T16:52:59.883Z,18.23
2018-04-13T16:55:27.423Z,12.03
2018-04-13T16:57:55.174Z,12.07
2018-04-13T17:00:22.711Z,12.23
2018-04-13T17:02:50.223Z,13.23
2018-04-13T17:05:17.771Z,11.97
2018-04-13T17:07:45.284Z,12.40
2018-04-13T17:10:12.818Z,14.70
2018-04-13T17:12:40.338Z,12.47
2018-04-13T17:15:07.874Z,13.30
2018-04-13T17:17:36.155Z,13.60
2018-04-13T17:20:03.686Z,17.17
2018-04-13T17:22:31.195Z,14.67
2018-04-13T17:24:59.479Z,14.33
2018-04-13T17:27:27.778Z,15.87
2018-04-13T17:29:55.291Z,16.00
2018-04-13T17:32:22.824Z,20.50
2018-04-13T17:34:50.335Z,16.27
2018-04-13T17:37:17.871Z,18.80
2018-04-13T17:39:46.147Z,20.50
2018-04-13T17:42:14.455Z,15.80
2018-04-13T17:44:42.231Z,16.20
2018-04-13T17:47:09.767Z,15.90
2018-04-13T17:49:37.555Z,14.53
2018-04-13T17:52:05.094Z,16.30
2018-04-13T17:54:32.970Z,16.20
2018-04-13T17:57:00.502Z,21.80
2018-04-13T17:59:28.019Z,20.57
2018-04-13T18:01:55.943Z,17.93
2018-04-13T18:04:23.452Z,18.13
2018-04-13T18:06:51.752Z,17.50
2018-04-13T18:09:19.264Z,17.20
2018-04-13T18:11:47.099Z,17.00
2018-04-13T18:14:14.652Z,17.87
2018-04-13T18:16:42.192Z,15.97
2018-04-13T18:19:09.711Z,16.50
2018-04-13T18:21:38.014Z,17.97
2018-04-13T18:24:05.529Z,15.60
2018-04-13T18:26:33.096Z,18.50
2018-04-13T18:29:00.603Z,16.67
2018-04-13T18:31:28.188Z,16.33
2018-04-13T18:33:55.699Z,16.27
2018-04-13T18:36:23.247Z,16.17
2018-04-13T18:38:50.757Z,17.20
2018-04-13T18:41:18.299Z,28.60
2018-04-13T18:43:45.831Z,19.60
2018-04-13T18:46:13.402Z,18.27
2018-04-13T18:48:40.906Z,18.53
2018-04-13T18:51:08.463Z,25.90
2018-04-13T18:53:35.978Z,49.47
2018-04-13T18:56:03.523Z,33.30
2018-04-13T18:58:31.301Z,20.27
2018-04-13T19:00:58.851Z,24.60
2018-04-13T19:03:26.411Z,22.73
2018-04-13T19:05:53.923Z,21.70
2018-04-13T19:08:22.239Z,20.90
2018-04-13T19:10:49.782Z,20.97
2018-04-13T19:13:17.294Z,22.23
2018-04-13T19:15:45.115Z,24.50
2018-04-13T19:18:12.647Z,22.23
2018-04-13T19:20:40.198Z,24.27
2018-04-13T19:23:07.715Z,25.40
2018-04-13T19:25:35.279Z,23.67
2018-04-13T19:28:03.578Z,21.83
2018-04-13T19:30:31.379Z,20.60
2018-04-13T19:32:58.910Z,23.30
2018-04-13T19:35:26.438Z,22.33
2018-04-13T19:37:54.744Z,23.40
2018-04-13T19:40:22.261Z,29.60
2018-04-13T19:42:50.571Z,26.70
2018-04-13T19:45:18.110Z,30.43
2018-04-13T19:47:46.416Z,29.10
2018-04-13T19:50:13.926Z,24.77
2018-04-13T19:52:42.295Z,27.17
2018-04-13T19:55:09.799Z,30.07
2018-04-13T19:57:37.339Z,26.80
2018-04-13T20:00:04.855Z,25.83
2018-04-13T20:02:32.401Z,25.90
2018-04-13T20:04:59.926Z,25.73
2018-04-13T20:07:27.472Z,26.73
2018-04-13T20:09:54.986Z,29.07
2018-04-13T20:12:22.522Z,28.97
2018-04-13T20:14:50.043Z,32.53
2018-04-13T20:17:17.578Z,30.33
2018-04-13T20:19:46.098Z,28.80
2018-04-13T20:22:13.646Z,30.13
2018-04-13T20:24:41.155Z,26.67
2018-04-13T20:27:09.455Z,26.67
2018-04-13T20:29:36.969Z,25.80
2018-04-13T20:32:04.502Z,23.40
2018-04-13T20:34:32.017Z,24.40
2018-04-13T20:36:59.550Z,26.90
2018-04-13T20:39:27.079Z,25.80
2018-04-13T20:41:54.618Z,25.20
2018-04-13T20:44:22.142Z,25.20
2018-04-13T20:46:49.939Z,24.83
2018-04-13T20:49:17.505Z,24.97
2018-04-13T20:51:45.011Z,23.70
2018-04-13T20:54:12.573Z,23.90
2018-04-13T20:56:40.086Z,25.27
2018-04-13T20:59:07.623Z,22.20
2018-04-13T21:01:35.139Z,20.77
2018-04-13T21:04:03.440Z,21.70
2018-04-13T21:06:30.958Z,22.80
2018-04-13T21:08:59.256Z,21.70
2018-04-13T21:11:26.770Z,19.40
2018-04-13T21:13:54.307Z,19.50
2018-04-13T21:16:22.056Z,19.27
2018-04-13T21:18:49.589Z,18.20
2018-04-13T21:21:17.119Z,18.87
2018-04-13T21:23:45.419Z,16.57
2018-04-13T21:26:12.935Z,18.60
2018-04-13T21:28:40.466Z,17.97
2018-04-13T21:31:07.979Z,18.10
2018-04-13T21:33:35.518Z,18.87
2018-04-13T21:36:03.797Z,18.10
2018-04-13T21:38:32.100Z,17.23
2018-04-13T21:40:59.617Z,18.63
2018-04-13T21:43:27.922Z,20.03
2018-04-13T21:45:55.434Z,20.93
2018-04-13T21:48:22.994Z,18.80
2018-04-13T21:50:50.528Z,18.70
2018-04-13T21:53:18.043Z,19.50
2018-04-13T21:55:45.583Z,19.20
2018-04-13T21:58:14.187Z,18.43
2018-04-13T22:00:41.729Z,18.70
2018-04-13T22:03:09.283Z,17.67
2018-04-13T22:05:37.587Z,18.77
2018-04-13T22:08:05.187Z,17.53
2018-04-13T22:10:32.718Z,16.43
2018-04-13T22:13:12.147Z,16.43
2018-04-13T22:15:39.683Z,16.00
2018-04-13T22:18:07.194Z,15.27
2018-04-13T22:20:34.755Z,15.17
2018-04-13T22:23:02.576Z,14.23
2018-04-13T22:25:30.143Z,15.50
2018-04-13T22:27:57.655Z,14.07
2018-04-13T22:30:25.461Z,13.30
2018-04-13T22:32:52.971Z,14.53
2018-04-13T22:35:20.502Z,13.80
2018-04-13T22:37:48.578Z,14.07
2018-04-13T22:40:16.372Z,13.30
2018-04-13T22:42:43.886Z,12.60
2018-04-13T22:45:11.498Z,13.00
2018-04-13T22:47:39.333Z,13.00
2018-04-13T22:50:07.180Z,12.73
2018-04-13T22:52:35.274Z,13.63
2018-04-13T22:55:02.887Z,14.00
2018-04-13T22:57:30.409Z,14.37
2018-04-13T22:59:57.954Z,15.30
2018-04-13T23:02:25.471Z,12.90
2018-04-13T23:04:53.005Z,14.07
2018-04-13T23:07:20.761Z,14.47
2018-04-13T23:09:48.290Z,13.70
2018-04-13T23:12:15.855Z,13.37
2018-04-13T23:14:43.371Z,13.80
2018-04-13T23:17:11.677Z,13.30
2018-04-13T23:19:39.458Z,12.93
2018-04-13T23:22:07.758Z,12.47
2018-04-13T23:24:35.291Z,13.60
2018-04-13T23:27:02.827Z,12.43
2018-04-13T23:29:32.325Z,11.60
2018-04-13T23:31:59.912Z,11.40
2018-04-13T23:34:27.445Z,12.50
2018-04-13T23:36:55.004Z,11.57
2018-04-13T23:39:22.514Z,11.53
2018-04-13T23:41:50.053Z,11.67
2018-04-13T23:44:17.602Z,11.50
2018-04-13T23:46:45.431Z,11.70
2018-04-13T23:49:15.530Z,11.47
2018-04-13T23:51:43.101Z,11.10
2018-04-13T23:54:10.610Z,11.53
2018-04-13T23:56:38.443Z,11.40
2018-04-13T23:59:05.967Z,12.93
